sensor_id;sensor_type;location;lat;lon;timestamp;P1;durP1;ratioP1;P2;durP2;ratioP2
11548;SDS011;61444;59.472;18.306;2023-02-28T00:01:43;1.60;;;0.80;;
11548;SDS011;61444;59.472;18.306;2023-02-28T00:03:52;1.23;;;0.73;;
11548;SDS011;61444;59.472;18.306;2023-02-28T00:06:03;1.00;;;0.70;;
11548;SDS011;61444;59.472;18.306;2023-02-28T00:08:13;0.87;;;0.50;;
11548;SDS011;61444;59.472;18.306;2023-02-28T00:10:23;1.67;;;0.80;;
11548;SDS011;61444;59.472;18.306;2023-02-28T00:12:32;0.90;;;0.50;;
11548;SDS011;61444;59.472;18.306;2023-02-28T00:14:41;0.90;;;0.67;;
11548;SDS011;61444;59.472;18.306;2023-02-28T00:16:50;0.87;;;0.60;;
11548;SDS011;61444;59.472;18.306;2023-02-28T00:19:00;0.90;;;0.60;;
11548;SDS011;61444;59.472;18.306;2023-02-28T00:21:10;1.07;;;0.70;;
11548;SDS011;61444;59.472;18.306;2023-02-28T00:23:19;1.00;;;0.70;;
11548;SDS011;61444;59.472;18.306;2023-02-28T00:25:28;1.67;;;0.60;;
11548;SDS011;61444;59.472;18.306;2023-02-28T00:27:38;1.67;;;0.53;;
11548;SDS011;61444;59.472;18.306;2023-02-28T00:29:47;2.43;;;0.77;;
11548;SDS011;61444;59.472;18.306;2023-02-28T00:31:56;1.40;;;0.80;;
11548;SDS011;61444;59.472;18.306;2023-02-28T00:34:05;0.83;;;0.57;;
11548;SDS011;61444;59.472;18.306;2023-02-28T00:36:15;2.77;;;0.80;;
11548;SDS011;61444;59.472;18.306;2023-02-28T00:38:24;0.97;;;0.53;;
11548;SDS011;61444;59.472;18.306;2023-02-28T00:40:34;1.07;;;0.60;;
11548;SDS011;61444;59.472;18.306;2023-02-28T00:42:42;1.00;;;0.57;;
11548;SDS011;61444;59.472;18.306;2023-02-28T00:44:51;1.97;;;0.70;;
11548;SDS011;61444;59.472;18.306;2023-02-28T00:47:00;0.63;;;0.50;;
11548;SDS011;61444;59.472;18.306;2023-02-28T00:49:09;1.03;;;0.50;;
11548;SDS011;61444;59.472;18.306;2023-02-28T00:51:20;0.60;;;0.40;;
11548;SDS011;61444;59.472;18.306;2023-02-28T00:53:29;1.13;;;0.50;;
11548;SDS011;61444;59.472;18.306;2023-02-28T00:55:38;1.00;;;0.60;;
11548;SDS011;61444;59.472;18.306;2023-02-28T00:57:47;0.60;;;0.50;;
11548;SDS011;61444;59.472;18.306;2023-02-28T00:59:57;0.47;;;0.40;;
11548;SDS011;61444;59.472;18.306;2023-02-28T01:02:06;0.70;;;0.50;;
11548;SDS011;61444;59.472;18.306;2023-02-28T01:04:15;0.97;;;0.60;;
11548;SDS011;61444;59.472;18.306;2023-02-28T01:06:26;0.53;;;0.50;;
11548;SDS011;61444;59.472;18.306;2023-02-28T01:08:35;0.80;;;0.60;;
11548;SDS011;61444;59.472;18.306;2023-02-28T01:10:44;0.70;;;0.40;;
11548;SDS011;61444;59.472;18.306;2023-02-28T01:12:53;1.33;;;0.50;;
11548;SDS011;61444;59.472;18.306;2023-02-28T01:15:02;1.03;;;0.70;;
11548;SDS011;61444;59.472;18.306;2023-02-28T01:17:11;0.93;;;0.50;;
11548;SDS011;61444;59.472;18.306;2023-02-28T01:19:20;0.70;;;0.40;;
11548;SDS011;61444;59.472;18.306;2023-02-28T01:21:31;0.90;;;0.50;;
11548;SDS011;61444;59.472;18.306;2023-02-28T01:23:41;1.40;;;0.60;;
11548;SDS011;61444;59.472;18.306;2023-02-28T01:25:50;1.00;;;0.60;;
11548;SDS011;61444;59.472;18.306;2023-02-28T01:27:59;0.77;;;0.60;;
11548;SDS011;61444;59.472;18.306;2023-02-28T01:30:08;0.80;;;0.40;;
11548;SDS011;61444;59.472;18.306;2023-02-28T01:32:18;0.90;;;0.40;;
11548;SDS011;61444;59.472;18.306;2023-02-28T01:34:28;0.90;;;0.70;;
11548;SDS011;61444;59.472;18.306;2023-02-28T01:36:38;1.10;;;0.60;;
11548;SDS011;61444;59.472;18.306;2023-02-28T01:38:48;0.97;;;0.60;;
11548;SDS011;61444;59.472;18.306;2023-02-28T01:40:56;0.80;;;0.50;;
11548;SDS011;61444;59.472;18.306;2023-02-28T01:43:08;1.53;;;0.50;;
11548;SDS011;61444;59.472;18.306;2023-02-28T01:45:26;1.13;;;0.43;;
11548;SDS011;61444;59.472;18.306;2023-02-28T01:47:38;0.43;;;0.40;;
11548;SDS011;61444;59.472;18.306;2023-02-28T01:49:47;0.50;;;0.43;;
11548;SDS011;61444;59.472;18.306;2023-02-28T01:52:00;0.53;;;0.30;;
11548;SDS011;61444;59.472;18.306;2023-02-28T01:54:10;1.13;;;0.40;;
11548;SDS011;61444;59.472;18.306;2023-02-28T01:56:22;0.63;;;0.53;;
11548;SDS011;61444;59.472;18.306;2023-02-28T01:58:32;1.00;;;0.50;;
11548;SDS011;61444;59.472;18.306;2023-02-28T02:00:41;0.60;;;0.50;;
11548;SDS011;61444;59.472;18.306;2023-02-28T02:02:50;1.13;;;0.60;;
11548;SDS011;61444;59.472;18.306;2023-02-28T02:05:00;0.70;;;0.40;;
11548;SDS011;61444;59.472;18.306;2023-02-28T02:07:12;0.90;;;0.60;;
11548;SDS011;61444;59.472;18.306;2023-02-28T02:09:22;1.20;;;0.60;;
11548;SDS011;61444;59.472;18.306;2023-02-28T02:11:31;0.87;;;0.60;;
11548;SDS011;61444;59.472;18.306;2023-02-28T02:13:58;0.93;;;0.70;;
11548;SDS011;61444;59.472;18.306;2023-02-28T02:16:17;1.10;;;0.73;;
11548;SDS011;61444;59.472;18.306;2023-02-28T02:18:32;1.10;;;0.77;;
11548;SDS011;61444;59.472;18.306;2023-02-28T02:21:04;1.20;;;0.77;;
11548;SDS011;61444;59.472;18.306;2023-02-28T02:25:45;0.97;;;0.70;;
11548;SDS011;61444;59.472;18.306;2023-02-28T02:30:51;1.03;;;0.60;;
11548;SDS011;61444;59.472;18.306;2023-02-28T02:33:10;0.80;;;0.50;;
11548;SDS011;61444;59.472;18.306;2023-02-28T02:35:28;0.90;;;0.60;;
11548;SDS011;61444;59.472;18.306;2023-02-28T02:37:38;2.73;;;0.70;;
11548;SDS011;61444;59.472;18.306;2023-02-28T02:39:50;1.70;;;0.60;;
11548;SDS011;61444;59.472;18.306;2023-02-28T02:42:00;0.67;;;0.53;;
11548;SDS011;61444;59.472;18.306;2023-02-28T02:44:11;1.00;;;0.63;;
11548;SDS011;61444;59.472;18.306;2023-02-28T02:46:23;0.90;;;0.60;;
11548;SDS011;61444;59.472;18.306;2023-02-28T02:48:34;0.90;;;0.50;;
11548;SDS011;61444;59.472;18.306;2023-02-28T02:50:46;1.80;;;0.50;;
11548;SDS011;61444;59.472;18.306;2023-02-28T02:52:59;0.50;;;0.30;;
11548;SDS011;61444;59.472;18.306;2023-02-28T02:55:10;0.50;;;0.30;;
11548;SDS011;61444;59.472;18.306;2023-02-28T02:57:21;0.70;;;0.40;;
11548;SDS011;61444;59.472;18.306;2023-02-28T02:59:31;1.20;;;0.40;;
11548;SDS011;61444;59.472;18.306;2023-02-28T03:01:40;0.60;;;0.33;;
11548;SDS011;61444;59.472;18.306;2023-02-28T03:03:50;1.77;;;0.40;;
11548;SDS011;61444;59.472;18.306;2023-02-28T03:06:01;0.50;;;0.30;;
11548;SDS011;61444;59.472;18.306;2023-02-28T03:08:12;0.50;;;0.33;;
11548;SDS011;61444;59.472;18.306;2023-02-28T03:10:30;0.60;;;0.40;;
11548;SDS011;61444;59.472;18.306;2023-02-28T03:12:40;0.63;;;0.30;;
11548;SDS011;61444;59.472;18.306;2023-02-28T03:14:52;0.73;;;0.40;;
11548;SDS011;61444;59.472;18.306;2023-02-28T03:19:33;2.57;;;0.60;;
11548;SDS011;61444;59.472;18.306;2023-02-28T03:21:46;0.90;;;0.50;;
11548;SDS011;61444;59.472;18.306;2023-02-28T03:24:00;1.13;;;0.50;;
11548;SDS011;61444;59.472;18.306;2023-02-28T03:26:13;0.90;;;0.40;;
11548;SDS011;61444;59.472;18.306;2023-02-28T03:28:29;0.50;;;0.40;;
11548;SDS011;61444;59.472;18.306;2023-02-28T03:30:41;0.70;;;0.40;;
11548;SDS011;61444;59.472;18.306;2023-02-28T03:32:53;0.87;;;0.43;;
11548;SDS011;61444;59.472;18.306;2023-02-28T03:35:04;0.40;;;0.37;;
11548;SDS011;61444;59.472;18.306;2023-02-28T03:37:18;0.30;;;0.30;;
11548;SDS011;61444;59.472;18.306;2023-02-28T03:39:28;0.50;;;0.40;;
11548;SDS011;61444;59.472;18.306;2023-02-28T03:41:42;0.90;;;0.50;;
11548;SDS011;61444;59.472;18.306;2023-02-28T03:43:54;0.40;;;0.30;;
11548;SDS011;61444;59.472;18.306;2023-02-28T03:46:05;0.83;;;0.40;;
11548;SDS011;61444;59.472;18.306;2023-02-28T03:48:16;0.43;;;0.30;;
11548;SDS011;61444;59.472;18.306;2023-02-28T03:50:27;0.40;;;0.30;;
11548;SDS011;61444;59.472;18.306;2023-02-28T03:52:40;0.80;;;0.40;;
11548;SDS011;61444;59.472;18.306;2023-02-28T03:54:52;0.30;;;0.30;;
11548;SDS011;61444;59.472;18.306;2023-02-28T03:57:03;0.40;;;0.30;;
11548;SDS011;61444;59.472;18.306;2023-02-28T03:59:14;1.00;;;0.50;;
11548;SDS011;61444;59.472;18.306;2023-02-28T04:01:25;0.90;;;0.50;;
11548;SDS011;61444;59.472;18.306;2023-02-28T04:03:37;0.50;;;0.40;;
11548;SDS011;61444;59.472;18.306;2023-02-28T04:05:49;0.43;;;0.40;;
11548;SDS011;61444;59.472;18.306;2023-02-28T04:08:04;0.67;;;0.30;;
11548;SDS011;61444;59.472;18.306;2023-02-28T04:10:13;0.80;;;0.40;;
11548;SDS011;61444;59.472;18.306;2023-02-28T04:12:23;0.57;;;0.50;;
11548;SDS011;61444;59.472;18.306;2023-02-28T04:14:32;0.67;;;0.43;;
11548;SDS011;61444;59.472;18.306;2023-02-28T04:16:41;0.50;;;0.37;;
11548;SDS011;61444;59.472;18.306;2023-02-28T04:18:50;0.30;;;0.30;;
11548;SDS011;61444;59.472;18.306;2023-02-28T04:20:59;0.67;;;0.50;;
11548;SDS011;61444;59.472;18.306;2023-02-28T04:23:10;0.47;;;0.40;;
11548;SDS011;61444;59.472;18.306;2023-02-28T04:25:19;1.03;;;0.40;;
11548;SDS011;61444;59.472;18.306;2023-02-28T04:27:28;0.60;;;0.40;;
11548;SDS011;61444;59.472;18.306;2023-02-28T04:29:38;0.67;;;0.30;;
11548;SDS011;61444;59.472;18.306;2023-02-28T04:31:51;0.40;;;0.30;;
11548;SDS011;61444;59.472;18.306;2023-02-28T04:34:00;0.63;;;0.30;;
11548;SDS011;61444;59.472;18.306;2023-02-28T04:36:09;0.90;;;0.40;;
11548;SDS011;61444;59.472;18.306;2023-02-28T04:38:21;1.77;;;0.40;;
11548;SDS011;61444;59.472;18.306;2023-02-28T04:40:30;0.67;;;0.33;;
11548;SDS011;61444;59.472;18.306;2023-02-28T04:42:40;0.57;;;0.30;;
11548;SDS011;61444;59.472;18.306;2023-02-28T04:44:48;0.87;;;0.57;;
11548;SDS011;61444;59.472;18.306;2023-02-28T04:46:57;2.43;;;1.63;;
11548;SDS011;61444;59.472;18.306;2023-02-28T04:49:07;1.30;;;1.10;;
11548;SDS011;61444;59.472;18.306;2023-02-28T04:51:16;1.23;;;1.03;;
11548;SDS011;61444;59.472;18.306;2023-02-28T04:53:27;2.23;;;1.40;;
11548;SDS011;61444;59.472;18.306;2023-02-28T04:55:36;1.00;;;0.80;;
11548;SDS011;61444;59.472;18.306;2023-02-28T04:57:46;0.40;;;0.30;;
11548;SDS011;61444;59.472;18.306;2023-02-28T04:59:55;0.57;;;0.30;;
11548;SDS011;61444;59.472;18.306;2023-02-28T05:02:03;2.10;;;0.40;;
11548;SDS011;61444;59.472;18.306;2023-02-28T05:04:13;0.40;;;0.30;;
11548;SDS011;61444;59.472;18.306;2023-02-28T05:06:22;0.57;;;0.40;;
11548;SDS011;61444;59.472;18.306;2023-02-28T05:08:33;0.57;;;0.27;;
11548;SDS011;61444;59.472;18.306;2023-02-28T05:10:41;0.30;;;0.30;;
11548;SDS011;61444;59.472;18.306;2023-02-28T05:12:50;0.30;;;0.30;;
11548;SDS011;61444;59.472;18.306;2023-02-28T05:14:59;0.80;;;0.50;;
11548;SDS011;61444;59.472;18.306;2023-02-28T05:17:09;0.50;;;0.40;;
11548;SDS011;61444;59.472;18.306;2023-02-28T05:19:17;0.40;;;0.40;;
11548;SDS011;61444;59.472;18.306;2023-02-28T05:21:29;0.60;;;0.60;;
11548;SDS011;61444;59.472;18.306;2023-02-28T05:23:39;2.73;;;1.53;;
11548;SDS011;61444;59.472;18.306;2023-02-28T05:25:49;3.93;;;2.60;;
11548;SDS011;61444;59.472;18.306;2023-02-28T05:28:00;3.63;;;2.30;;
11548;SDS011;61444;59.472;18.306;2023-02-28T05:30:09;3.10;;;2.13;;
11548;SDS011;61444;59.472;18.306;2023-02-28T05:32:18;2.57;;;1.87;;
11548;SDS011;61444;59.472;18.306;2023-02-28T05:34:27;2.43;;;1.67;;
11548;SDS011;61444;59.472;18.306;2023-02-28T05:36:36;1.17;;;0.90;;
11548;SDS011;61444;59.472;18.306;2023-02-28T05:38:48;1.57;;;1.10;;
11548;SDS011;61444;59.472;18.306;2023-02-28T05:40:57;1.43;;;1.00;;
11548;SDS011;61444;59.472;18.306;2023-02-28T05:43:07;1.70;;;0.80;;
11548;SDS011;61444;59.472;18.306;2023-02-28T05:45:18;1.60;;;0.90;;
11548;SDS011;61444;59.472;18.306;2023-02-28T05:47:27;0.90;;;0.73;;
11548;SDS011;61444;59.472;18.306;2023-02-28T05:49:36;2.73;;;0.70;;
11548;SDS011;61444;59.472;18.306;2023-02-28T05:51:45;1.10;;;0.73;;
11548;SDS011;61444;59.472;18.306;2023-02-28T05:53:57;1.00;;;0.73;;
11548;SDS011;61444;59.472;18.306;2023-02-28T05:56:06;1.43;;;0.70;;
11548;SDS011;61444;59.472;18.306;2023-02-28T05:58:16;2.00;;;0.70;;
11548;SDS011;61444;59.472;18.306;2023-02-28T06:00:25;1.47;;;0.70;;
11548;SDS011;61444;59.472;18.306;2023-02-28T06:02:34;0.93;;;0.70;;
11548;SDS011;61444;59.472;18.306;2023-02-28T06:04:43;2.00;;;0.70;;
11548;SDS011;61444;59.472;18.306;2023-02-28T06:06:52;1.83;;;0.60;;
11548;SDS011;61444;59.472;18.306;2023-02-28T06:09:03;1.20;;;1.10;;
11548;SDS011;61444;59.472;18.306;2023-02-28T06:11:12;0.63;;;0.60;;
11548;SDS011;61444;59.472;18.306;2023-02-28T06:13:21;0.60;;;0.60;;
11548;SDS011;61444;59.472;18.306;2023-02-28T06:15:30;0.60;;;0.50;;
11548;SDS011;61444;59.472;18.306;2023-02-28T06:17:39;0.50;;;0.30;;
11548;SDS011;61444;59.472;18.306;2023-02-28T06:19:48;1.67;;;0.37;;
11548;SDS011;61444;59.472;18.306;2023-02-28T06:21:57;0.67;;;0.50;;
11548;SDS011;61444;59.472;18.306;2023-02-28T06:24:08;1.07;;;0.40;;
11548;SDS011;61444;59.472;18.306;2023-02-28T06:26:17;0.67;;;0.30;;
11548;SDS011;61444;59.472;18.306;2023-02-28T06:28:26;1.77;;;0.40;;
11548;SDS011;61444;59.472;18.306;2023-02-28T06:30:36;3.03;;;0.50;;
11548;SDS011;61444;59.472;18.306;2023-02-28T06:32:45;0.50;;;0.30;;
11548;SDS011;61444;59.472;18.306;2023-02-28T06:34:55;0.47;;;0.30;;
11548;SDS011;61444;59.472;18.306;2023-02-28T06:37:04;0.30;;;0.20;;
11548;SDS011;61444;59.472;18.306;2023-02-28T06:39:16;0.30;;;0.27;;
11548;SDS011;61444;59.472;18.306;2023-02-28T06:41:25;0.23;;;0.20;;
11548;SDS011;61444;59.472;18.306;2023-02-28T06:43:40;0.63;;;0.40;;
11548;SDS011;61444;59.472;18.306;2023-02-28T06:45:49;0.50;;;0.40;;
11548;SDS011;61444;59.472;18.306;2023-02-28T06:47:58;0.33;;;0.23;;
11548;SDS011;61444;59.472;18.306;2023-02-28T06:50:08;1.50;;;0.40;;
11548;SDS011;61444;59.472;18.306;2023-02-28T06:52:17;0.30;;;0.30;;
11548;SDS011;61444;59.472;18.306;2023-02-28T06:54:28;0.40;;;0.40;;
11548;SDS011;61444;59.472;18.306;2023-02-28T06:56:36;0.50;;;0.40;;
11548;SDS011;61444;59.472;18.306;2023-02-28T06:58:45;1.03;;;0.40;;
11548;SDS011;61444;59.472;18.306;2023-02-28T07:00:56;0.40;;;0.30;;
11548;SDS011;61444;59.472;18.306;2023-02-28T07:03:05;1.00;;;0.40;;
11548;SDS011;61444;59.472;18.306;2023-02-28T07:05:14;0.40;;;0.30;;
11548;SDS011;61444;59.472;18.306;2023-02-28T07:07:22;0.30;;;0.30;;
11548;SDS011;61444;59.472;18.306;2023-02-28T07:09:33;0.40;;;0.30;;
11548;SDS011;61444;59.472;18.306;2023-02-28T07:11:42;3.40;;;0.43;;
11548;SDS011;61444;59.472;18.306;2023-02-28T07:13:52;0.50;;;0.30;;
11548;SDS011;61444;59.472;18.306;2023-02-28T07:16:02;0.40;;;0.30;;
11548;SDS011;61444;59.472;18.306;2023-02-28T07:18:12;0.67;;;0.30;;
11548;SDS011;61444;59.472;18.306;2023-02-28T07:20:20;1.57;;;0.30;;
11548;SDS011;61444;59.472;18.306;2023-02-28T07:22:30;0.50;;;0.30;;
11548;SDS011;61444;59.472;18.306;2023-02-28T07:24:40;1.03;;;0.40;;
11548;SDS011;61444;59.472;18.306;2023-02-28T07:26:49;0.50;;;0.40;;
11548;SDS011;61444;59.472;18.306;2023-02-28T07:28:57;0.70;;;0.40;;
11548;SDS011;61444;59.472;18.306;2023-02-28T07:31:06;0.47;;;0.47;;
11548;SDS011;61444;59.472;18.306;2023-02-28T07:33:16;0.80;;;0.57;;
11548;SDS011;61444;59.472;18.306;2023-02-28T07:35:24;0.63;;;0.40;;
11548;SDS011;61444;59.472;18.306;2023-02-28T07:37:33;0.93;;;0.33;;
11548;SDS011;61444;59.472;18.306;2023-02-28T07:39:44;0.20;;;0.20;;
11548;SDS011;61444;59.472;18.306;2023-02-28T07:41:53;0.40;;;0.27;;
11548;SDS011;61444;59.472;18.306;2023-02-28T07:44:02;0.33;;;0.30;;
11548;SDS011;61444;59.472;18.306;2023-02-28T07:46:12;0.40;;;0.30;;
11548;SDS011;61444;59.472;18.306;2023-02-28T07:48:22;0.53;;;0.33;;
11548;SDS011;61444;59.472;18.306;2023-02-28T07:50:31;0.33;;;0.23;;
11548;SDS011;61444;59.472;18.306;2023-02-28T07:52:41;1.03;;;0.30;;
11548;SDS011;61444;59.472;18.306;2023-02-28T07:54:51;0.30;;;0.20;;
11548;SDS011;61444;59.472;18.306;2023-02-28T07:57:00;0.37;;;0.30;;
11548;SDS011;61444;59.472;18.306;2023-02-28T07:59:09;0.37;;;0.30;;
11548;SDS011;61444;59.472;18.306;2023-02-28T08:01:18;0.33;;;0.30;;
11548;SDS011;61444;59.472;18.306;2023-02-28T08:03:28;0.50;;;0.30;;
11548;SDS011;61444;59.472;18.306;2023-02-28T08:05:38;0.40;;;0.30;;
11548;SDS011;61444;59.472;18.306;2023-02-28T08:07:48;0.50;;;0.30;;
11548;SDS011;61444;59.472;18.306;2023-02-28T08:09:58;0.80;;;0.30;;
11548;SDS011;61444;59.472;18.306;2023-02-28T08:12:08;0.67;;;0.30;;
11548;SDS011;61444;59.472;18.306;2023-02-28T08:14:17;0.20;;;0.20;;
11548;SDS011;61444;59.472;18.306;2023-02-28T08:16:26;0.47;;;0.30;;
11548;SDS011;61444;59.472;18.306;2023-02-28T08:18:35;0.40;;;0.30;;
11548;SDS011;61444;59.472;18.306;2023-02-28T08:20:44;0.50;;;0.40;;
11548;SDS011;61444;59.472;18.306;2023-02-28T08:22:53;0.57;;;0.27;;
11548;SDS011;61444;59.472;18.306;2023-02-28T08:25:04;0.80;;;0.40;;
11548;SDS011;61444;59.472;18.306;2023-02-28T08:27:14;0.83;;;0.30;;
11548;SDS011;61444;59.472;18.306;2023-02-28T08:29:24;0.40;;;0.30;;
11548;SDS011;61444;59.472;18.306;2023-02-28T08:31:33;0.40;;;0.30;;
11548;SDS011;61444;59.472;18.306;2023-02-28T08:33:43;0.40;;;0.27;;
11548;SDS011;61444;59.472;18.306;2023-02-28T08:35:53;0.40;;;0.30;;
11548;SDS011;61444;59.472;18.306;2023-02-28T08:38:03;0.47;;;0.30;;
11548;SDS011;61444;59.472;18.306;2023-02-28T08:40:15;0.43;;;0.20;;
11548;SDS011;61444;59.472;18.306;2023-02-28T08:42:26;2.00;;;0.40;;
11548;SDS011;61444;59.472;18.306;2023-02-28T08:44:35;0.57;;;0.37;;
11548;SDS011;61444;59.472;18.306;2023-02-28T08:46:44;0.70;;;0.47;;
11548;SDS011;61444;59.472;18.306;2023-02-28T08:48:55;0.90;;;0.40;;
11548;SDS011;61444;59.472;18.306;2023-02-28T08:51:13;2.33;;;0.30;;
11548;SDS011;61444;59.472;18.306;2023-02-28T08:53:23;0.40;;;0.30;;
11548;SDS011;61444;59.472;18.306;2023-02-28T08:55:34;0.63;;;0.40;;
11548;SDS011;61444;59.472;18.306;2023-02-28T08:57:43;0.43;;;0.30;;
11548;SDS011;61444;59.472;18.306;2023-02-28T08:59:52;0.40;;;0.30;;
11548;SDS011;61444;59.472;18.306;2023-02-28T09:02:04;0.77;;;0.50;;
11548;SDS011;61444;59.472;18.306;2023-02-28T09:04:13;1.07;;;0.70;;
11548;SDS011;61444;59.472;18.306;2023-02-28T09:06:26;0.30;;;0.30;;
11548;SDS011;61444;59.472;18.306;2023-02-28T09:08:38;0.40;;;0.40;;
11548;SDS011;61444;59.472;18.306;2023-02-28T09:10:49;0.50;;;0.40;;
11548;SDS011;61444;59.472;18.306;2023-02-28T09:12:57;1.00;;;0.50;;
11548;SDS011;61444;59.472;18.306;2023-02-28T09:15:07;0.53;;;0.40;;
11548;SDS011;61444;59.472;18.306;2023-02-28T09:17:19;0.50;;;0.40;;
11548;SDS011;61444;59.472;18.306;2023-02-28T09:19:29;0.40;;;0.40;;
11548;SDS011;61444;59.472;18.306;2023-02-28T09:21:40;0.50;;;0.40;;
11548;SDS011;61444;59.472;18.306;2023-02-28T09:23:50;0.50;;;0.40;;
11548;SDS011;61444;59.472;18.306;2023-02-28T09:26:00;1.10;;;0.40;;
11548;SDS011;61444;59.472;18.306;2023-02-28T09:28:14;0.33;;;0.33;;
11548;SDS011;61444;59.472;18.306;2023-02-28T09:30:23;0.50;;;0.40;;
11548;SDS011;61444;59.472;18.306;2023-02-28T09:32:32;0.83;;;0.40;;
11548;SDS011;61444;59.472;18.306;2023-02-28T09:34:45;0.30;;;0.30;;
11548;SDS011;61444;59.472;18.306;2023-02-28T09:36:53;0.40;;;0.30;;
11548;SDS011;61444;59.472;18.306;2023-02-28T09:39:02;0.40;;;0.40;;
11548;SDS011;61444;59.472;18.306;2023-02-28T09:41:13;0.40;;;0.40;;
11548;SDS011;61444;59.472;18.306;2023-02-28T09:43:23;0.47;;;0.40;;
11548;SDS011;61444;59.472;18.306;2023-02-28T09:45:35;0.40;;;0.30;;
11548;SDS011;61444;59.472;18.306;2023-02-28T09:47:45;0.43;;;0.43;;
11548;SDS011;61444;59.472;18.306;2023-02-28T09:50:00;0.40;;;0.40;;
11548;SDS011;61444;59.472;18.306;2023-02-28T09:52:13;1.40;;;0.40;;
11548;SDS011;61444;59.472;18.306;2023-02-28T09:54:23;1.17;;;0.50;;
11548;SDS011;61444;59.472;18.306;2023-02-28T09:56:36;1.47;;;0.47;;
11548;SDS011;61444;59.472;18.306;2023-02-28T09:58:47;0.50;;;0.40;;
11548;SDS011;61444;59.472;18.306;2023-02-28T10:00:58;0.60;;;0.40;;
11548;SDS011;61444;59.472;18.306;2023-02-28T10:05:41;0.50;;;0.40;;
11548;SDS011;61444;59.472;18.306;2023-02-28T10:07:56;0.50;;;0.40;;
11548;SDS011;61444;59.472;18.306;2023-02-28T10:10:14;0.43;;;0.40;;
11548;SDS011;61444;59.472;18.306;2023-02-28T10:12:26;0.63;;;0.40;;
11548;SDS011;61444;59.472;18.306;2023-02-28T10:14:39;0.63;;;0.50;;
11548;SDS011;61444;59.472;18.306;2023-02-28T10:16:53;0.50;;;0.40;;
11548;SDS011;61444;59.472;18.306;2023-02-28T10:19:09;0.90;;;0.50;;
11548;SDS011;61444;59.472;18.306;2023-02-28T10:21:24;3.43;;;0.50;;
11548;SDS011;61444;59.472;18.306;2023-02-28T10:23:37;0.57;;;0.50;;
11548;SDS011;61444;59.472;18.306;2023-02-28T10:25:54;1.20;;;0.40;;
11548;SDS011;61444;59.472;18.306;2023-02-28T10:28:13;0.30;;;0.30;;
11548;SDS011;61444;59.472;18.306;2023-02-28T10:30:27;1.13;;;0.40;;
11548;SDS011;61444;59.472;18.306;2023-02-28T10:32:37;0.40;;;0.40;;
11548;SDS011;61444;59.472;18.306;2023-02-28T10:34:52;1.23;;;0.40;;
11548;SDS011;61444;59.472;18.306;2023-02-28T10:37:17;0.40;;;0.40;;
11548;SDS011;61444;59.472;18.306;2023-02-28T10:39:39;0.57;;;0.40;;
11548;SDS011;61444;59.472;18.306;2023-02-28T10:41:57;0.57;;;0.40;;
11548;SDS011;61444;59.472;18.306;2023-02-28T10:44:20;0.30;;;0.30;;
11548;SDS011;61444;59.472;18.306;2023-02-28T10:49:02;0.30;;;0.30;;
11548;SDS011;61444;59.472;18.306;2023-02-28T10:51:34;0.50;;;0.40;;
11548;SDS011;61444;59.472;18.306;2023-02-28T10:53:54;0.67;;;0.43;;
11548;SDS011;61444;59.472;18.306;2023-02-28T10:56:16;1.53;;;0.40;;
11548;SDS011;61444;59.472;18.306;2023-02-28T10:58:28;0.53;;;0.40;;
11548;SDS011;61444;59.472;18.306;2023-02-28T11:00:39;1.07;;;0.43;;
11548;SDS011;61444;59.472;18.306;2023-02-28T11:02:48;0.77;;;0.50;;
11548;SDS011;61444;59.472;18.306;2023-02-28T11:04:57;0.50;;;0.40;;
11548;SDS011;61444;59.472;18.306;2023-02-28T11:07:16;0.60;;;0.40;;
11548;SDS011;61444;59.472;18.306;2023-02-28T11:09:31;0.57;;;0.40;;
11548;SDS011;61444;59.472;18.306;2023-02-28T11:11:43;0.60;;;0.50;;
11548;SDS011;61444;59.472;18.306;2023-02-28T11:13:54;0.90;;;0.50;;
11548;SDS011;61444;59.472;18.306;2023-02-28T11:16:07;1.03;;;0.40;;
11548;SDS011;61444;59.472;18.306;2023-02-28T11:18:20;0.50;;;0.40;;
11548;SDS011;61444;59.472;18.306;2023-02-28T11:20:30;0.50;;;0.40;;
11548;SDS011;61444;59.472;18.306;2023-02-28T11:22:43;0.30;;;0.30;;
11548;SDS011;61444;59.472;18.306;2023-02-28T11:24:55;2.20;;;0.40;;
11548;SDS011;61444;59.472;18.306;2023-02-28T11:27:04;0.80;;;0.50;;
11548;SDS011;61444;59.472;18.306;2023-02-28T11:29:18;0.90;;;0.43;;
11548;SDS011;61444;59.472;18.306;2023-02-28T11:31:29;1.40;;;0.60;;
11548;SDS011;61444;59.472;18.306;2023-02-28T11:33:42;0.60;;;0.47;;
11548;SDS011;61444;59.472;18.306;2023-02-28T11:35:52;1.07;;;0.40;;
11548;SDS011;61444;59.472;18.306;2023-02-28T11:38:01;1.23;;;0.50;;
11548;SDS011;61444;59.472;18.306;2023-02-28T11:40:12;0.50;;;0.40;;
11548;SDS011;61444;59.472;18.306;2023-02-28T11:44:58;0.40;;;0.40;;
11548;SDS011;61444;59.472;18.306;2023-02-28T11:47:12;0.97;;;0.53;;
11548;SDS011;61444;59.472;18.306;2023-02-28T11:49:30;0.83;;;0.40;;
11548;SDS011;61444;59.472;18.306;2023-02-28T11:51:44;3.13;;;0.53;;
11548;SDS011;61444;59.472;18.306;2023-02-28T11:53:59;0.30;;;0.30;;
11548;SDS011;61444;59.472;18.306;2023-02-28T11:56:13;0.40;;;0.40;;
11548;SDS011;61444;59.472;18.306;2023-02-28T11:58:27;0.60;;;0.40;;
11548;SDS011;61444;59.472;18.306;2023-02-28T12:00:42;0.70;;;0.50;;
11548;SDS011;61444;59.472;18.306;2023-02-28T12:02:57;2.40;;;0.47;;
11548;SDS011;61444;59.472;18.306;2023-02-28T12:05:11;0.40;;;0.40;;
11548;SDS011;61444;59.472;18.306;2023-02-28T12:07:25;1.40;;;0.50;;
11548;SDS011;61444;59.472;18.306;2023-02-28T12:09:44;0.63;;;0.50;;
11548;SDS011;61444;59.472;18.306;2023-02-28T12:11:55;0.43;;;0.40;;
11548;SDS011;61444;59.472;18.306;2023-02-28T12:14:16;0.50;;;0.40;;
11548;SDS011;61444;59.472;18.306;2023-02-28T12:16:35;1.17;;;0.57;;
11548;SDS011;61444;59.472;18.306;2023-02-28T12:21:18;0.40;;;0.40;;
11548;SDS011;61444;59.472;18.306;2023-02-28T12:26:01;0.30;;;0.30;;
11548;SDS011;61444;59.472;18.306;2023-02-28T12:28:10;0.40;;;0.40;;
11548;SDS011;61444;59.472;18.306;2023-02-28T12:30:21;0.60;;;0.53;;
11548;SDS011;61444;59.472;18.306;2023-02-28T12:32:31;0.77;;;0.40;;
11548;SDS011;61444;59.472;18.306;2023-02-28T12:34:41;0.50;;;0.43;;
11548;SDS011;61444;59.472;18.306;2023-02-28T12:36:53;0.37;;;0.37;;
11548;SDS011;61444;59.472;18.306;2023-02-28T12:39:06;0.67;;;0.50;;
11548;SDS011;61444;59.472;18.306;2023-02-28T12:41:17;0.60;;;0.47;;
11548;SDS011;61444;59.472;18.306;2023-02-28T12:43:28;0.87;;;0.60;;
11548;SDS011;61444;59.472;18.306;2023-02-28T12:45:40;0.40;;;0.40;;
11548;SDS011;61444;59.472;18.306;2023-02-28T12:47:52;1.03;;;0.50;;
11548;SDS011;61444;59.472;18.306;2023-02-28T12:50:02;0.50;;;0.40;;
11548;SDS011;61444;59.472;18.306;2023-02-28T12:52:13;0.40;;;0.40;;
11548;SDS011;61444;59.472;18.306;2023-02-28T12:54:23;0.30;;;0.30;;
11548;SDS011;61444;59.472;18.306;2023-02-28T12:56:35;0.50;;;0.30;;
11548;SDS011;61444;59.472;18.306;2023-02-28T12:58:45;0.57;;;0.43;;
11548;SDS011;61444;59.472;18.306;2023-02-28T13:01:03;0.50;;;0.50;;
11548;SDS011;61444;59.472;18.306;2023-02-28T13:03:34;1.13;;;0.57;;
11548;SDS011;61444;59.472;18.306;2023-02-28T13:05:56;0.40;;;0.30;;
11548;SDS011;61444;59.472;18.306;2023-02-28T13:10:41;0.70;;;0.40;;
11548;SDS011;61444;59.472;18.306;2023-02-28T13:12:51;1.07;;;0.30;;
11548;SDS011;61444;59.472;18.306;2023-02-28T13:15:04;0.67;;;0.50;;
11548;SDS011;61444;59.472;18.306;2023-02-28T13:17:18;1.20;;;0.70;;
11548;SDS011;61444;59.472;18.306;2023-02-28T13:19:28;0.97;;;0.70;;
11548;SDS011;61444;59.472;18.306;2023-02-28T13:21:41;2.50;;;0.50;;